createdAt,value
2022-10-01T00:29:32.806Z,0
2022-10-01T00:30:13.266Z,0
2022-10-01T00:30:53.825Z,0
2022-10-01T00:36:17.667Z,0
2022-10-01T00:36:58.127Z,0
2022-10-01T00:37:38.639Z,0
2022-10-01T00:38:19.053Z,0
2022-10-01T00:38:59.524Z,0
2022-10-01T00:39:40.002Z,0
2022-10-01T00:40:20.468Z,0
2022-10-01T00:41:00.973Z,0
2022-10-01T00:41:41.437Z,0
2022-10-01T00:42:21.963Z,0
2022-10-01T00:43:02.417Z,0
2022-10-01T00:50:27.749Z,0
2022-10-01T00:51:08.233Z,0
2022-10-01T00:51:48.740Z,0
2022-10-01T00:52:29.240Z,0
2022-10-01T00:53:09.767Z,0
2022-10-01T00:53:50.194Z,0
2022-10-01T00:54:30.694Z,0
2022-10-01T00:58:10.346Z,0
2022-10-01T00:58:50.598Z,0
2022-10-01T00:59:31.103Z,0
2022-10-01T01:04:54.922Z,0
2022-10-01T01:05:35.400Z,0
2022-10-01T01:06:15.884Z,0
2022-10-01T01:06:56.350Z,0
2022-10-01T01:07:36.841Z,0
2022-10-01T01:08:17.380Z,0
2022-10-01T01:08:57.806Z,0
2022-10-01T01:09:38.272Z,0
2022-10-01T01:10:18.770Z,0
2022-10-01T01:10:59.282Z,0
2022-10-01T01:19:04.954Z,0
2022-10-01T01:19:45.462Z,0
2022-10-01T01:20:25.888Z,0
2022-10-01T01:21:06.404Z,0
2022-10-01T01:21:46.876Z,0
2022-10-01T01:22:27.301Z,0
2022-10-01T01:23:07.773Z,0
2022-10-01T01:23:48.354Z,0
2022-10-01T01:24:28.840Z,0
2022-10-01T01:25:09.306Z,0
2022-10-01T01:32:05.571Z,0
2022-10-01T01:32:46.103Z,0
2022-10-01T01:33:26.561Z,0
2022-10-01T01:38:50.355Z,0
2022-10-01T01:39:30.808Z,0
2022-10-01T01:40:11.334Z,0
2022-10-01T01:40:51.764Z,0
2022-10-01T01:41:32.495Z,0
2022-10-01T01:42:12.712Z,0
2022-10-01T01:42:53.192Z,0
2022-10-01T01:43:33.670Z,0
2022-10-01T01:44:14.146Z,0
2022-10-01T01:44:54.693Z,0
2022-10-01T01:52:20.182Z,0
2022-10-01T01:53:00.671Z,0
2022-10-01T01:53:41.152Z,0
2022-10-01T01:54:21.649Z,0
2022-10-01T01:55:02.170Z,0
2022-10-01T01:55:42.581Z,0
2022-10-01T01:56:23.063Z,0
2022-10-01T01:57:03.546Z,0
2022-10-01T01:57:44.026Z,0
2022-10-01T01:58:24.537Z,0
2022-10-01T01:59:05.091Z,0
2022-10-01T02:06:30.524Z,0
2022-10-01T02:07:10.990Z,0
2022-10-01T02:07:51.438Z,0
2022-10-01T02:08:31.903Z,0
2022-10-01T02:09:12.384Z,0
2022-10-01T02:09:52.877Z,0
2022-10-01T02:10:33.454Z,0
2022-10-01T02:11:13.956Z,0
2022-10-01T02:11:54.561Z,0
2022-10-01T02:12:35.042Z,0
2022-10-01T02:20:00.300Z,0
2022-10-01T02:20:40.777Z,0
2022-10-01T02:21:21.283Z,0
2022-10-01T02:22:01.737Z,0
2022-10-01T02:22:42.263Z,0
2022-10-01T02:23:22.843Z,0
2022-10-01T02:24:03.366Z,0
2022-10-01T02:24:43.879Z,0
2022-10-01T02:25:24.334Z,0
2022-10-01T02:26:04.844Z,0
2022-10-01T02:33:30.215Z,0
2022-10-01T02:34:12.579Z,0
2022-10-01T02:34:51.197Z,0
2022-10-01T02:35:31.757Z,0
2022-10-01T02:36:12.184Z,0
2022-10-01T02:36:52.655Z,0
2022-10-01T02:37:33.147Z,0
2022-10-01T02:38:13.609Z,0
2022-10-01T02:38:54.096Z,0
2022-10-01T02:39:34.584Z,0
2022-10-01T02:40:15.054Z,0
2022-10-01T02:47:40.309Z,0
2022-10-01T02:48:20.778Z,0
2022-10-01T02:49:01.896Z,0
2022-10-01T02:49:42.381Z,0
2022-10-01T02:50:22.834Z,0
2022-10-01T02:51:03.335Z,0
2022-10-01T02:51:43.852Z,0
2022-10-01T02:52:24.353Z,0
2022-10-01T02:53:04.812Z,0
2022-10-01T02:59:50.277Z,0
2022-10-01T03:00:30.737Z,0
2022-10-01T03:01:11.307Z,0
2022-10-01T03:01:51.798Z,0
2022-10-01T03:02:32.251Z,0
2022-10-01T03:03:12.675Z,0
2022-10-01T03:03:53.203Z,0
2022-10-01T03:04:33.654Z,0
2022-10-01T03:05:14.228Z,0
2022-10-01T03:05:54.641Z,0
2022-10-01T03:06:35.100Z,0
2022-10-01T03:14:00.456Z,0
2022-10-01T03:14:40.911Z,0
2022-10-01T03:15:21.380Z,0
2022-10-01T03:16:01.910Z,0
2022-10-01T03:16:42.355Z,0
2022-10-01T03:17:22.851Z,0
2022-10-01T03:18:03.302Z,0
2022-10-01T03:18:43.787Z,0
2022-10-01T03:19:24.276Z,0
2022-10-01T03:20:04.812Z,0
2022-10-01T03:27:30.255Z,0
2022-10-01T03:28:10.793Z,0
2022-10-01T03:28:51.235Z,0
2022-10-01T03:29:31.755Z,0
2022-10-01T03:30:12.221Z,0
2022-10-01T03:30:52.712Z,0
2022-10-01T03:31:33.566Z,0
2022-10-01T03:32:13.837Z,0
2022-10-01T03:32:54.292Z,0
2022-10-01T03:33:34.829Z,0
2022-10-01T03:41:00.170Z,0
2022-10-01T03:41:40.641Z,0
2022-10-01T03:42:21.165Z,0
2022-10-01T03:43:01.653Z,0
2022-10-01T03:43:42.128Z,0
2022-10-01T03:44:22.602Z,0
2022-10-01T03:45:03.076Z,0
2022-10-01T03:45:43.573Z,0
2022-10-01T03:46:24.045Z,0
2022-10-01T03:47:04.515Z,0
2022-10-01T03:50:38.438Z,0
2022-10-01T03:51:19.925Z,0
2022-10-01T03:51:59.432Z,0
2022-10-01T03:57:23.268Z,0
2022-10-01T03:58:03.772Z,0
2022-10-01T03:58:44.205Z,0
2022-10-01T03:59:24.697Z,0
2022-10-01T04:00:05.192Z,0
2022-10-01T04:00:45.660Z,0
2022-10-01T04:01:26.286Z,0
2022-10-01T04:02:06.702Z,0
2022-10-01T04:02:47.141Z,0
2022-10-01T04:03:27.600Z,0
2022-10-01T04:04:08.096Z,0
2022-10-01T04:10:53.191Z,0
2022-10-01T04:11:34.142Z,0
2022-10-01T04:16:24.653Z,0
2022-10-01T04:17:04.033Z,0
2022-10-01T04:17:46.038Z,0
2022-10-01T04:18:27.338Z,0
2022-10-01T04:19:50.453Z,0
2022-10-01T04:20:30.858Z,0
2022-10-01T04:21:11.683Z,0
2022-10-01T04:21:52.112Z,0
2022-10-01T04:22:32.568Z,0
2022-10-01T04:28:39.396Z,0
2022-10-01T04:29:19.789Z,0
2022-10-01T04:30:00.255Z,0
2022-10-01T04:30:40.758Z,0
2022-10-01T04:31:21.318Z,0
2022-10-01T04:32:01.824Z,0
2022-10-01T04:32:42.314Z,0
2022-10-01T04:34:03.266Z,0
2022-10-01T04:34:43.767Z,0
2022-10-01T04:41:28.958Z,0
2022-10-01T04:42:09.501Z,0
2022-10-01T04:42:50.007Z,0
2022-10-01T04:43:30.620Z,0
2022-10-01T04:44:10.996Z,0
2022-10-01T04:44:51.760Z,0
2022-10-01T04:45:32.226Z,0
2022-10-01T04:46:12.775Z,0
2022-10-01T04:46:53.280Z,0
2022-10-01T04:47:37.444Z,0
2022-10-01T04:54:59.168Z,0
2022-10-01T04:55:39.732Z,0
2022-10-01T04:56:20.149Z,0
2022-10-01T04:57:00.762Z,0
2022-10-01T04:57:41.311Z,0
2022-10-01T04:58:21.857Z,0
2022-10-01T04:59:02.305Z,0
2022-10-01T04:59:42.821Z,0
2022-10-01T05:00:23.280Z,0
2022-10-01T05:01:03.792Z,0
2022-10-01T05:08:29.100Z,0
2022-10-01T05:09:09.589Z,0
2022-10-01T05:09:50.034Z,0
2022-10-01T05:10:30.552Z,0
2022-10-01T05:11:11.109Z,0
2022-10-01T05:11:51.537Z,0
2022-10-01T05:12:32.012Z,0
2022-10-01T05:13:12.491Z,0
2022-10-01T05:13:52.954Z,0
2022-10-01T05:15:13.918Z,0
2022-10-01T05:22:39.284Z,0
2022-10-01T05:23:19.734Z,0
2022-10-01T05:24:00.251Z,0
2022-10-01T05:24:40.677Z,0
2022-10-01T05:25:21.140Z,0
2022-10-01T05:26:01.624Z,0
2022-10-01T05:26:42.122Z,0
2022-10-01T05:27:22.586Z,0
2022-10-01T05:28:03.158Z,0
2022-10-01T05:28:43.569Z,0
2022-10-01T05:36:08.943Z,0
2022-10-01T05:36:49.451Z,0
2022-10-01T05:37:29.932Z,0
2022-10-01T05:38:10.459Z,0
2022-10-01T05:38:50.890Z,0
2022-10-01T05:39:31.403Z,0
2022-10-01T05:40:11.949Z,0
2022-10-01T05:40:52.402Z,0
2022-10-01T05:41:33.174Z,0
2022-10-01T05:42:13.410Z,0
2022-10-01T05:42:53.890Z,0
2022-10-01T05:49:38.904Z,0
2022-10-01T05:50:19.507Z,0
2022-10-01T05:50:59.991Z,0
2022-10-01T05:51:41.290Z,0
2022-10-01T05:52:21.758Z,0
2022-10-01T05:53:02.234Z,0
2022-10-01T05:53:44.336Z,0
2022-10-01T06:32:10.761Z,0
2022-10-01T06:32:51.187Z,0
2022-10-01T06:33:31.641Z,0
2022-10-01T06:38:55.483Z,5
2022-10-01T06:39:35.953Z,0
2022-10-01T06:40:16.558Z,0
2022-10-01T06:40:57.000Z,0
2022-10-01T06:41:37.592Z,0
2022-10-01T06:42:18.111Z,0
2022-10-01T06:42:58.622Z,0
2022-10-01T06:43:39.082Z,0
2022-10-01T06:44:19.604Z,0
2022-10-01T06:45:00.074Z,0
2022-10-01T06:52:17.443Z,5
2022-10-01T06:52:57.850Z,5
2022-10-01T06:53:38.393Z,5
2022-10-01T06:59:02.451Z,5
2022-10-01T06:59:42.968Z,5
2022-10-01T07:01:04.152Z,5
2022-10-01T07:01:44.612Z,5
2022-10-01T07:02:25.068Z,5
2022-10-01T07:03:05.577Z,5
2022-10-01T07:03:45.981Z,5
2022-10-01T07:04:26.596Z,5
2022-10-01T07:11:12.833Z,5
2022-10-01T07:11:53.340Z,5
2022-10-01T07:12:33.850Z,5
2022-10-01T07:13:14.361Z,5
2022-10-01T07:13:54.980Z,5
2022-10-01T07:14:35.280Z,5
2022-10-01T07:15:15.753Z,5
2022-10-01T07:15:56.280Z,5
2022-10-01T07:16:36.868Z,5
2022-10-01T07:24:02.194Z,5
2022-10-01T07:24:42.848Z,5
2022-10-01T07:25:23.337Z,5
2022-10-01T07:26:03.835Z,5
2022-10-01T07:26:44.423Z,5
2022-10-01T07:27:24.941Z,5
2022-10-01T07:28:05.417Z,5
2022-10-01T07:28:45.809Z,5
2022-10-01T07:29:26.322Z,5
2022-10-01T07:30:06.775Z,5
2022-10-01T07:35:32.138Z,10
2022-10-01T07:36:12.616Z,10
2022-10-01T07:36:53.098Z,10
2022-10-01T07:37:33.597Z,10
2022-10-01T07:38:14.051Z,5
2022-10-01T07:38:54.559Z,5
2022-10-01T07:39:35.050Z,5
2022-10-01T07:40:15.475Z,10
2022-10-01T07:40:55.989Z,10
2022-10-01T07:41:36.711Z,10
2022-10-01T07:42:16.968Z,10
2022-10-01T07:48:22.279Z,10
2022-10-01T07:49:02.686Z,10
2022-10-01T07:49:43.276Z,10
2022-10-01T07:50:23.835Z,10
2022-10-01T07:51:04.261Z,10
2022-10-01T07:51:44.788Z,10
2022-10-01T07:52:25.723Z,10
2022-10-01T07:53:06.220Z,10
2022-10-01T07:53:46.820Z,10
2022-10-01T08:03:20.261Z,20
2022-10-01T08:04:00.648Z,30
2022-10-01T08:04:41.151Z,40
2022-10-01T08:05:21.707Z,35
2022-10-01T08:08:44.749Z,40
2022-10-01T08:09:25.235Z,40
2022-10-01T08:10:05.765Z,35
2022-10-01T08:10:46.218Z,35
2022-10-01T08:11:26.892Z,30
2022-10-01T08:12:07.319Z,35
2022-10-01T08:12:48.385Z,35
2022-10-01T08:13:28.933Z,35
2022-10-01T08:14:09.447Z,35
2022-10-01T08:18:45.465Z,40
2022-10-01T08:19:25.878Z,35
2022-10-01T08:20:06.253Z,40
2022-10-01T08:24:49.734Z,35
2022-10-01T08:25:30.223Z,35
2022-10-01T08:26:10.681Z,35
2022-10-01T08:26:51.377Z,35
2022-10-01T08:27:31.971Z,35
2022-10-01T08:28:12.505Z,45
2022-10-01T08:28:52.934Z,55
2022-10-01T08:29:33.454Z,45
2022-10-01T08:30:13.963Z,60
2022-10-01T08:30:54.418Z,55
2022-10-01T08:38:19.908Z,40
2022-10-01T08:39:00.337Z,35
2022-10-01T08:39:40.856Z,35
2022-10-01T08:40:21.369Z,35
2022-10-01T08:41:01.857Z,35
2022-10-01T08:41:42.357Z,30
2022-10-01T08:42:22.864Z,30
2022-10-01T08:43:03.365Z,30
2022-10-01T08:43:43.895Z,30
2022-10-01T08:44:24.379Z,30
2022-10-01T08:51:50.006Z,20
2022-10-01T08:52:30.463Z,20
2022-10-01T08:53:11.010Z,15
2022-10-01T08:53:51.501Z,15
2022-10-01T08:54:32.005Z,20
2022-10-01T08:55:12.432Z,20
2022-10-01T08:55:52.957Z,20
2022-10-01T08:56:33.439Z,20
2022-10-01T08:57:13.988Z,20
2022-10-01T08:57:54.537Z,20
2022-10-01T09:05:20.086Z,10
2022-10-01T09:06:00.553Z,10
2022-10-01T09:06:41.068Z,10
2022-10-01T09:07:21.601Z,10
2022-10-01T09:08:02.087Z,15
2022-10-01T09:08:42.610Z,10
2022-10-01T09:09:23.080Z,10
2022-10-01T09:10:03.579Z,15
2022-10-01T09:10:44.048Z,15
2022-10-01T09:11:24.582Z,15
2022-10-01T09:19:30.598Z,25
2022-10-01T09:20:11.051Z,25
2022-10-01T09:20:51.541Z,20
2022-10-01T09:21:32.358Z,20
2022-10-01T09:22:12.601Z,20
2022-10-01T09:22:53.056Z,20
2022-10-01T09:23:33.531Z,15
2022-10-01T09:24:14.051Z,15
2022-10-01T09:24:54.519Z,15
2022-10-01T09:32:19.912Z,70
2022-10-01T09:33:00.432Z,70
2022-10-01T09:33:40.908Z,70
2022-10-01T09:34:21.378Z,75
2022-10-01T09:35:04.397Z,55
2022-10-01T09:35:42.350Z,50
2022-10-01T09:36:22.883Z,55
2022-10-01T09:37:03.343Z,45
2022-10-01T09:37:43.853Z,40
2022-10-01T09:38:24.413Z,40
2022-10-01T09:45:49.909Z,45
2022-10-01T09:46:30.382Z,30
2022-10-01T09:47:10.874Z,25
2022-10-01T09:47:51.375Z,35
2022-10-01T09:48:31.878Z,25
2022-10-01T09:49:12.418Z,20
2022-10-01T09:50:33.338Z,25
2022-10-01T09:51:13.853Z,25
2022-10-01T09:51:54.366Z,30
2022-10-01T09:59:19.881Z,35
2022-10-01T10:00:00.417Z,30
2022-10-01T10:04:44.743Z,35
2022-10-01T10:05:25.164Z,45
2022-10-01T10:06:06.414Z,55
2022-10-01T10:10:49.393Z,35
2022-10-01T10:11:31.049Z,35
2022-10-01T10:12:11.176Z,30
2022-10-01T10:12:51.733Z,35
2022-10-01T10:13:32.179Z,35
2022-10-01T10:14:12.668Z,35
2022-10-01T10:14:53.208Z,40
2022-10-01T10:16:14.170Z,65
2022-10-01T10:23:39.599Z,40
2022-10-01T10:24:20.136Z,35
2022-10-01T10:25:00.609Z,35
2022-10-01T10:25:41.076Z,35
2022-10-01T10:26:21.623Z,40
2022-10-01T10:27:02.180Z,50
2022-10-01T10:27:42.797Z,40
2022-10-01T10:28:23.364Z,40
2022-10-01T10:29:03.818Z,40
2022-10-01T10:29:44.309Z,40
2022-10-01T10:36:29.589Z,60
2022-10-01T10:37:10.083Z,40
2022-10-01T10:37:50.588Z,40
2022-10-01T10:38:31.122Z,45
2022-10-01T10:39:11.612Z,55
2022-10-01T10:39:52.106Z,60
2022-10-01T10:40:32.680Z,55
2022-10-01T10:41:13.120Z,50
2022-10-01T10:41:53.623Z,65
2022-10-01T10:42:34.114Z,60
2022-10-01T10:49:59.657Z,65
2022-10-01T10:50:40.192Z,65
2022-10-01T10:51:20.660Z,65
2022-10-01T10:52:01.150Z,65
2022-10-01T10:52:45.033Z,65
2022-10-01T10:53:22.260Z,65
2022-10-01T10:54:02.609Z,65
2022-10-01T10:54:43.105Z,70
2022-10-01T10:55:23.595Z,70
2022-10-01T10:56:04.120Z,70
2022-10-01T11:03:29.723Z,65
2022-10-01T11:04:10.203Z,65
2022-10-01T11:05:31.912Z,65
2022-10-01T11:06:12.383Z,60
2022-10-01T11:06:52.853Z,60
2022-10-01T11:07:33.505Z,60
2022-10-01T11:08:17.626Z,50
2022-10-01T11:15:39.320Z,60
2022-10-01T11:16:19.921Z,55
2022-10-01T11:19:58.870Z,35
2022-10-01T11:20:39.478Z,40
2022-10-01T11:21:19.879Z,40
2022-10-01T11:22:00.359Z,40
2022-10-01T11:26:43.901Z,40
2022-10-01T11:27:24.392Z,40
2022-10-01T11:28:04.913Z,40
2022-10-01T11:28:45.350Z,65
2022-10-01T11:29:25.846Z,65
2022-10-01T11:30:06.386Z,65
2022-10-01T11:30:46.851Z,45
2022-10-01T11:31:27.399Z,40
2022-10-01T11:32:07.877Z,45
2022-10-01T11:32:48.385Z,45
2022-10-01T11:39:33.479Z,40
2022-10-01T11:40:13.958Z,35
2022-10-01T11:40:54.474Z,35
2022-10-01T11:41:35.030Z,30
2022-10-01T11:42:15.631Z,30
2022-10-01T11:42:56.024Z,35
2022-10-01T11:43:36.514Z,25
2022-10-01T11:44:16.977Z,30
2022-10-01T11:45:00.617Z,30
2022-10-01T11:45:37.920Z,30
2022-10-01T11:53:03.578Z,30
2022-10-01T11:53:44.125Z,30
2022-10-01T11:54:24.769Z,30
2022-10-01T12:32:30.792Z,55
2022-10-01T12:33:11.270Z,55
2022-10-01T12:33:51.954Z,50
2022-10-01T12:34:32.528Z,45
2022-10-01T12:36:34.568Z,40
2022-10-01T12:37:14.881Z,40
2022-10-01T12:37:55.435Z,30
2022-10-01T12:38:35.952Z,40
2022-10-01T12:39:16.361Z,30
2022-10-01T12:39:56.848Z,30
2022-10-01T12:40:37.338Z,30
2022-10-01T12:41:17.869Z,30
2022-10-01T12:41:58.375Z,30
2022-10-01T12:42:38.877Z,30
2022-10-01T12:43:19.390Z,45
2022-10-01T12:50:04.410Z,50
2022-10-01T12:50:45.013Z,45
2022-10-01T12:51:25.692Z,45
2022-10-01T12:52:06.167Z,35
2022-10-01T12:52:46.654Z,45
2022-10-01T12:53:27.169Z,50
2022-10-01T12:54:10.459Z,50
2022-10-01T12:54:48.320Z,45
2022-10-01T12:55:28.835Z,55
2022-10-01T13:01:34.847Z,55
2022-10-01T13:02:15.451Z,55
2022-10-01T13:02:56.186Z,55
2022-10-01T13:03:37.052Z,60
2022-10-01T13:04:17.584Z,60
2022-10-01T13:04:58.114Z,60
2022-10-01T13:05:38.869Z,60
2022-10-01T13:12:24.742Z,40
2022-10-01T13:13:05.180Z,35
2022-10-01T13:13:45.838Z,25
2022-10-01T13:14:26.372Z,25
2022-10-01T13:15:06.853Z,20
2022-10-01T13:15:47.428Z,20
2022-10-01T13:16:28.061Z,30
2022-10-01T13:17:08.764Z,20
2022-10-01T13:17:49.230Z,25
2022-10-01T13:23:54.357Z,55
2022-10-01T13:24:34.857Z,55
2022-10-01T13:25:15.378Z,55
2022-10-01T13:25:55.882Z,45
2022-10-01T13:26:36.706Z,45
2022-10-01T13:27:16.951Z,55
2022-10-01T13:27:57.474Z,55
2022-10-01T13:28:37.901Z,50
2022-10-01T13:29:18.401Z,40
2022-10-01T13:29:58.901Z,50
2022-10-01T13:34:04.888Z,30
2022-10-01T13:34:46.024Z,30
2022-10-01T13:35:26.483Z,30
2022-10-01T13:36:07.072Z,30
2022-10-01T13:36:47.562Z,30
2022-10-01T13:37:27.997Z,35
2022-10-01T13:38:08.585Z,35
2022-10-01T13:38:49.079Z,35
2022-10-01T13:45:34.466Z,25
2022-10-01T13:46:14.946Z,25
2022-10-01T13:46:55.430Z,40
2022-10-01T13:47:35.984Z,35
2022-10-01T13:48:16.454Z,35
2022-10-01T13:48:57.034Z,40
2022-10-01T13:49:37.617Z,30
2022-10-01T13:50:19.267Z,40
2022-10-01T13:50:59.248Z,35
2022-10-01T13:58:24.726Z,40
2022-10-01T13:59:05.271Z,40
2022-10-01T13:59:45.738Z,45
2022-10-01T14:00:26.233Z,45
2022-10-01T14:01:09.244Z,45
2022-10-01T14:01:47.295Z,45
2022-10-01T14:02:27.910Z,40
2022-10-01T14:03:08.348Z,35
2022-10-01T14:03:48.790Z,50
2022-10-01T14:04:29.309Z,45
2022-10-01T14:11:14.380Z,35
2022-10-01T14:11:54.965Z,40
2022-10-01T14:12:35.428Z,40
2022-10-01T14:13:19.600Z,40
2022-10-01T14:13:56.392Z,40
2022-10-01T14:14:36.960Z,40
2022-10-01T14:15:17.489Z,35
2022-10-01T14:15:58.109Z,35
2022-10-01T14:16:38.482Z,35
2022-10-01T14:17:18.971Z,35
2022-10-01T14:24:44.740Z,25
2022-10-01T14:25:25.211Z,35
2022-10-01T14:26:05.733Z,35
2022-10-01T14:26:46.246Z,35
2022-10-01T14:27:26.816Z,20
2022-10-01T14:28:07.316Z,20
2022-10-01T14:28:47.877Z,20
2022-10-01T14:29:28.392Z,20
2022-10-01T14:30:08.787Z,20
2022-10-01T14:30:49.322Z,20
2022-10-01T14:37:34.435Z,25
2022-10-01T14:38:14.940Z,35
2022-10-01T14:38:55.450Z,35
2022-10-01T14:39:35.978Z,35
2022-10-01T14:40:16.529Z,35
2022-10-01T14:40:57.069Z,30
2022-10-01T14:41:37.550Z,25
2022-10-01T14:42:18.194Z,25
2022-10-01T14:42:58.665Z,25
2022-10-01T14:43:39.179Z,25
2022-10-01T14:52:58.770Z,35
2022-10-01T14:53:39.095Z,35
2022-10-01T14:54:19.589Z,35
2022-10-01T14:59:43.559Z,30
2022-10-01T15:00:23.978Z,35
2022-10-01T15:01:04.491Z,30
2022-10-01T15:01:45.037Z,20
2022-10-01T15:02:25.514Z,20
2022-10-01T15:03:06.066Z,20
2022-10-01T15:03:46.555Z,20
2022-10-01T15:04:27.151Z,25
2022-10-01T15:05:07.578Z,20
2022-10-01T15:05:48.027Z,20
2022-10-01T15:13:13.582Z,155
2022-10-01T15:13:54.001Z,170
2022-10-01T15:14:34.491Z,185
2022-10-01T15:15:14.975Z,170
2022-10-01T15:15:55.490Z,125
2022-10-01T15:16:36.255Z,75
2022-10-01T15:17:16.386Z,40
2022-10-01T15:17:56.867Z,40
2022-10-01T15:18:37.333Z,35
2022-10-01T15:19:17.812Z,35
2022-10-01T15:19:58.291Z,25
2022-10-01T15:27:23.596Z,25
2022-10-01T15:28:04.164Z,25
2022-10-01T15:28:44.575Z,25
2022-10-01T15:29:25.154Z,25
2022-10-01T15:30:05.654Z,25
2022-10-01T15:30:46.095Z,25
2022-10-01T15:32:07.046Z,25
2022-10-01T15:32:47.590Z,25
2022-10-01T15:33:28.069Z,25
2022-10-01T15:40:53.442Z,25
2022-10-01T15:41:33.918Z,20
2022-10-01T15:42:14.342Z,20
2022-10-01T15:42:54.823Z,20
2022-10-01T15:43:35.301Z,20
2022-10-01T15:44:15.786Z,20
2022-10-01T15:44:56.261Z,20
2022-10-01T15:45:36.714Z,20
2022-10-01T15:46:17.275Z,20
2022-10-01T15:46:57.655Z,20
2022-10-01T15:47:38.198Z,20
2022-10-01T15:55:03.588Z,20
2022-10-01T15:55:44.091Z,20
2022-10-01T15:56:24.543Z,20
2022-10-01T15:57:05.046Z,20
2022-10-01T15:57:45.536Z,15
2022-10-01T15:58:26.046Z,15
2022-10-01T15:59:06.547Z,15
2022-10-01T15:59:47.020Z,15
2022-10-01T16:00:27.618Z,15
2022-10-01T16:01:08.122Z,15
2022-10-01T16:01:48.468Z,15
2022-10-01T16:09:13.733Z,15
2022-10-01T16:09:54.165Z,15
2022-10-01T16:10:34.742Z,15
2022-10-01T16:11:15.162Z,15
2022-10-01T16:11:55.634Z,15
2022-10-01T16:12:36.167Z,15
2022-10-01T16:13:16.610Z,15
2022-10-01T16:13:57.062Z,15
2022-10-01T16:14:37.596Z,15
2022-10-01T16:15:18.090Z,10
2022-10-01T16:20:50.656Z,10
2022-10-01T16:21:29.103Z,10
2022-10-01T16:22:09.627Z,10
2022-10-01T16:26:53.154Z,5
2022-10-01T16:27:33.678Z,5
2022-10-01T16:28:14.123Z,5
2022-10-01T16:28:54.686Z,5
2022-10-01T16:29:35.274Z,5
2022-10-01T16:30:15.975Z,5
2022-10-01T16:30:56.448Z,5
2022-10-01T16:31:37.074Z,5
2022-10-01T16:32:17.415Z,5
2022-10-01T16:32:57.922Z,5
2022-10-01T16:40:23.313Z,5
2022-10-01T16:41:03.764Z,5
2022-10-01T16:44:43.941Z,0
2022-10-01T16:45:24.365Z,0
2022-10-01T16:46:04.925Z,0
2022-10-01T16:51:28.870Z,0
2022-10-01T16:52:09.283Z,0
2022-10-01T16:52:49.783Z,0
2022-10-01T16:53:30.241Z,0
2022-10-01T16:54:10.743Z,0
2022-10-01T16:54:51.210Z,0
2022-10-01T16:55:31.689Z,0
2022-10-01T16:56:12.169Z,0
2022-10-01T16:56:52.674Z,0
2022-10-01T16:57:33.136Z,0
2022-10-01T17:04:58.577Z,0
2022-10-01T17:05:39.167Z,0
2022-10-01T17:06:19.621Z,0
2022-10-01T17:07:00.090Z,0
2022-10-01T17:07:40.572Z,0
2022-10-01T17:08:21.048Z,0
2022-10-01T17:09:01.593Z,0
2022-10-01T17:09:42.066Z,0
2022-10-01T17:10:22.551Z,0
2022-10-01T17:11:03.024Z,0
2022-10-01T17:11:43.508Z,0
2022-10-01T17:19:08.875Z,0
2022-10-01T17:19:49.331Z,0
2022-10-01T17:20:29.864Z,0
2022-10-01T17:21:10.398Z,0
2022-10-01T17:21:50.808Z,0
2022-10-01T17:22:31.332Z,0
2022-10-01T17:23:11.884Z,0
2022-10-01T17:23:53.549Z,0
2022-10-01T17:24:32.794Z,0
2022-10-01T17:25:13.218Z,0
2022-10-01T17:32:38.567Z,0
2022-10-01T17:33:19.082Z,0
2022-10-01T17:33:59.564Z,0
2022-10-01T17:34:40.009Z,0
2022-10-01T17:35:20.479Z,0
2022-10-01T17:36:00.968Z,0
2022-10-01T17:36:41.457Z,0
2022-10-01T17:38:02.365Z,0
2022-10-01T17:38:42.901Z,0
2022-10-01T17:39:23.351Z,0
2022-10-01T17:46:48.717Z,0
2022-10-01T17:47:29.191Z,0
2022-10-01T17:48:09.679Z,0
2022-10-01T17:48:50.153Z,0
2022-10-01T17:49:30.615Z,0
2022-10-01T17:50:11.094Z,0
2022-10-01T17:50:51.608Z,0
2022-10-01T17:51:32.090Z,0
2022-10-01T17:52:12.581Z,0
2022-10-01T17:52:53.047Z,0
2022-10-01T17:53:38.366Z,0
2022-10-01T18:34:39.007Z,0
2022-10-01T18:35:19.392Z,0
2022-10-01T18:35:59.860Z,0
2022-10-01T18:36:40.349Z,0
2022-10-01T18:42:04.237Z,0
2022-10-01T18:42:44.698Z,0
2022-10-01T18:43:25.227Z,0
2022-10-01T18:44:05.695Z,0
2022-10-01T18:44:46.191Z,0
2022-10-01T18:45:26.743Z,0
2022-10-01T18:46:07.293Z,0
2022-10-01T18:46:47.663Z,0
2022-10-01T18:47:28.165Z,0
2022-10-01T18:48:08.653Z,0
2022-10-01T18:58:12.878Z,0
2022-10-01T18:58:53.247Z,0
2022-10-01T18:59:33.713Z,0
2022-10-01T19:04:57.477Z,0
2022-10-01T19:05:37.913Z,0
2022-10-01T19:06:18.358Z,0
2022-10-01T19:06:58.852Z,0
2022-10-01T19:07:39.373Z,0
2022-10-01T19:08:19.851Z,0
2022-10-01T19:09:00.354Z,0
2022-10-01T19:09:40.854Z,0
2022-10-01T19:10:21.346Z,0
2022-10-01T19:11:01.809Z,0
2022-10-01T19:11:42.261Z,0
2022-10-01T19:19:07.556Z,0
2022-10-01T19:19:48.058Z,0
2022-10-01T19:20:28.492Z,0
2022-10-01T19:21:08.987Z,0
2022-10-01T19:21:49.535Z,0
2022-10-01T19:25:28.639Z,0
2022-10-01T19:26:09.209Z,0
2022-10-01T19:26:49.634Z,0
2022-10-01T19:27:30.135Z,0
2022-10-01T19:32:13.568Z,0
2022-10-01T19:32:53.987Z,0
2022-10-01T19:33:34.541Z,0
2022-10-01T19:34:15.926Z,0
2022-10-01T19:34:55.577Z,0
2022-10-01T19:35:36.080Z,0
2022-10-01T19:36:17.085Z,0
2022-10-01T19:36:57.037Z,0
2022-10-01T19:37:37.535Z,0
2022-10-01T19:38:17.991Z,0
2022-10-01T19:47:36.517Z,0
2022-10-01T19:48:16.999Z,0
2022-10-01T19:48:57.413Z,0
2022-10-01T19:49:37.898Z,0
2022-10-01T19:54:21.320Z,0
2022-10-01T19:55:01.812Z,0
2022-10-01T19:55:42.240Z,0
2022-10-01T19:56:22.750Z,0
2022-10-01T19:57:03.204Z,0
2022-10-01T19:57:43.687Z,0
2022-10-01T19:58:24.162Z,0
2022-10-01T19:59:04.664Z,0
2022-10-01T19:59:45.183Z,0
2022-10-01T20:00:25.646Z,0
2022-10-01T20:01:06.210Z,0
2022-10-01T20:07:51.096Z,0
2022-10-01T20:08:31.578Z,0
2022-10-01T20:09:11.994Z,0
2022-10-01T20:09:52.462Z,0
2022-10-01T20:10:32.954Z,0
2022-10-01T20:11:13.427Z,0
2022-10-01T20:11:53.907Z,0
2022-10-01T20:12:34.446Z,0
2022-10-01T20:13:14.976Z,0
2022-10-01T20:13:55.453Z,0
2022-10-01T20:14:35.946Z,0
2022-10-01T20:22:01.277Z,0
2022-10-01T20:22:41.791Z,0
2022-10-01T20:23:22.213Z,0
2022-10-01T20:24:02.731Z,0
2022-10-01T20:24:43.160Z,0
2022-10-01T20:25:23.657Z,0
2022-10-01T20:26:04.282Z,0
2022-10-01T20:26:44.753Z,0
2022-10-01T20:27:25.197Z,0
2022-10-01T20:28:05.721Z,0
2022-10-01T20:36:11.441Z,0
2022-10-01T20:36:51.916Z,0
2022-10-01T20:37:32.382Z,0
2022-10-01T20:38:12.897Z,0
2022-10-01T20:38:53.375Z,0
2022-10-01T20:39:33.830Z,0
2022-10-01T20:40:14.365Z,0
2022-10-01T20:40:54.861Z,0
2022-10-01T20:41:37.415Z,0
2022-10-01T20:42:15.838Z,0
2022-10-01T20:49:41.136Z,0
2022-10-01T20:50:21.600Z,0
2022-10-01T20:51:02.090Z,0
2022-10-01T20:51:42.547Z,0
2022-10-01T20:52:23.032Z,0
2022-10-01T20:53:03.514Z,0
2022-10-01T20:53:43.990Z,0
2022-10-01T20:54:24.457Z,0
2022-10-01T20:55:04.976Z,0
2022-10-01T20:55:45.421Z,0
2022-10-01T20:56:25.897Z,0
2022-10-01T21:03:51.093Z,0
2022-10-01T21:04:31.554Z,0
2022-10-01T21:05:12.015Z,0
2022-10-01T21:05:52.490Z,0
2022-10-01T21:06:33.349Z,0
2022-10-01T21:07:13.459Z,0
2022-10-01T21:07:53.945Z,0
2022-10-01T21:08:34.379Z,0
2022-10-01T21:09:14.872Z,0
2022-10-01T21:09:55.383Z,0
2022-10-01T21:10:35.800Z,0
2022-10-01T21:18:01.106Z,0
2022-10-01T21:18:41.563Z,0
2022-10-01T21:19:22.040Z,0
2022-10-01T21:20:02.460Z,0
2022-10-01T21:20:42.934Z,0
2022-10-01T21:21:23.412Z,0
2022-10-01T21:22:03.940Z,0
2022-10-01T21:22:44.421Z,0
2022-10-01T21:23:24.866Z,0
2022-10-01T21:24:05.347Z,0
2022-10-01T21:24:45.851Z,0
2022-10-01T21:32:11.168Z,0
2022-10-01T21:32:51.631Z,0
2022-10-01T21:33:32.118Z,0
2022-10-01T21:34:12.654Z,0
2022-10-01T21:34:53.130Z,0
2022-10-01T21:35:34.489Z,0
2022-10-01T21:36:14.980Z,0
2022-10-01T21:36:55.489Z,0
2022-10-01T21:37:35.974Z,0
2022-10-01T21:44:27.422Z,0
2022-10-01T21:45:07.736Z,0
2022-10-01T21:45:48.312Z,0
2022-10-01T21:46:28.782Z,0
2022-10-01T21:47:09.211Z,0
2022-10-01T21:47:49.725Z,0
2022-10-01T21:48:30.210Z,0
2022-10-01T21:49:10.645Z,0
2022-10-01T21:56:36.227Z,0
2022-10-01T21:57:16.472Z,0
2022-10-01T21:57:56.946Z,0
2022-10-01T21:58:37.390Z,0
2022-10-01T21:59:17.861Z,0
2022-10-01T21:59:58.385Z,0
2022-10-01T22:00:38.865Z,0
2022-10-01T22:01:19.350Z,0
2022-10-01T22:01:59.810Z,0
2022-10-01T22:02:40.263Z,0
2022-10-01T22:03:20.741Z,0
2022-10-01T22:10:46.149Z,0
2022-10-01T22:11:26.603Z,0
2022-10-01T22:12:07.050Z,0
2022-10-01T22:12:47.527Z,0
2022-10-01T22:13:27.998Z,0
2022-10-01T22:14:08.469Z,0
2022-10-01T22:14:48.929Z,0
2022-10-01T22:15:29.397Z,0
2022-10-01T22:16:09.898Z,0
2022-10-01T22:16:50.456Z,0
2022-10-01T22:24:56.170Z,0